| time (UTC) | temp F | wind direction | speed knots | gust knots | rain 1hr in | rain 24hr in | rain mn in | humidity % | barometer mb |
| 20260502214326 | 65 | 233 | 1.7 | 2.6 | 0.00 | 0.00 | 0.00 | 37 | 1013.2 |
| 20260502213824 | 65 | 267 | 2.6 | 4.3 | 0.00 | 0.00 | 0.00 | 37 | 1013.0 |
| 20260502213321 | 65 | 218 | 2.6 | 5.2 | 0.00 | 0.00 | 0.00 | 36 | 1013.5 |
| 20260502212820 | 65 | 243 | 7.8 | 8.7 | 0.00 | 0.00 | 0.00 | 36 | 1013.5 |
| 20260502212318 | 66 | 241 | 2.6 | 2.6 | 0.00 | 0.00 | 0.00 | 36 | 1013.3 |
| 20260502211815 | 67 | 201 | 3.5 | 4.3 | 0.00 | 0.00 | 0.00 | 35 | 1013.2 |
| 20260502211310 | 67 | 279 | 4.3 | 5.2 | 0.00 | 0.00 | 0.00 | 37 | 1013.5 |
| 20260502210808 | 67 | 192 | 0.9 | 1.7 | 0.00 | 0.00 | 0.00 | 36 | 1013.7 |
| 20260502210305 | 66 | 226 | 2.6 | 2.6 | 0.00 | 0.00 | 0.00 | 36 | 1013.6 |
| 20260502205802 | 67 | 158 | 8.7 | 9.6 | 0.00 | 0.00 | 0.00 | 35 | 1013.6 |
| 20260502205258 | 66 | 230 | 0.9 | 2.6 | 0.00 | 0.00 | 0.00 | 37 | 1013.9 |
| 20260502204755 | 66 | 230 | 2.6 | 4.3 | 0.00 | 0.00 | 0.00 | 37 | 1013.9 |
| 20260502204252 | 66 | 221 | 1.7 | 1.7 | 0.00 | 0.00 | 0.00 | 36 | 1014.0 |
| 20260502203750 | 65 | 243 | 0.9 | 2.6 | 0.00 | 0.00 | 0.00 | 36 | 1014.3 |
| 20260502203248 | 66 | 282 | 4.3 | 5.2 | 0.00 | 0.00 | 0.00 | 36 | 1014.3 |
| 20260502202742 | 66 | 224 | 2.6 | 2.6 | 0.00 | 0.00 | 0.00 | 36 | 1014.4 |
| 20260502202240 | 65 | 234 | 5.2 | 7.8 | 0.00 | 0.00 | 0.00 | 36 | 1014.7 |
| 20260502201738 | 66 | 277 | 6.1 | 7.0 | 0.00 | 0.00 | 0.00 | 35 | 1014.5 |
| 20260502201234 | 65 | 250 | 4.3 | 5.2 | 0.00 | 0.00 | 0.00 | 36 | 1014.9 |
| 20260502200730 | 66 | 211 | 2.6 | 4.3 | 0.00 | 0.00 | 0.00 | 37 | 1014.8 |
| 20260502200226 | 65 | 273 | 4.3 | 6.1 | 0.00 | 0.00 | 0.00 | 37 | 1015.0 |
| 20260502195725 | 64 | 234 | 0.9 | 1.7 | 0.00 | 0.00 | 0.00 | 38 | 1015.1 |
| 20260502195221 | 65 | 251 | 2.6 | 2.6 | 0.00 | 0.00 | 0.00 | 37 | 1015.1 |
| 20260502194717 | 64 | 263 | 4.3 | 6.1 | 0.00 | 0.00 | 0.00 | 36 | 1015.4 |
| 20260502194215 | 63 | 200 | 4.3 | 6.1 | 0.00 | 0.00 | 0.00 | 38 | 1015.5 |
| 20260502193710 | 64 | 220 | 0.0 | 0.0 | 0.00 | 0.00 | 0.00 | 37 | 1015.5 |
| 20260502193209 | 64 | 267 | 2.6 | 6.1 | 0.00 | 0.00 | 0.00 | 35 | 1015.7 |
| 20260502192703 | 63 | 189 | 0.9 | 0.9 | 0.00 | 0.00 | 0.00 | 37 | 1015.5 |
| 20260502192201 | 63 | 249 | 3.5 | 4.3 | 0.00 | 0.00 | 0.00 | 36 | 1015.5 |
| 20260502191657 | 63 | 229 | 1.7 | 1.7 | 0.00 | 0.00 | 0.00 | 38 | 1015.9 |
| 20260502191155 | 63 | 256 | 2.6 | 4.3 | 0.00 | 0.00 | 0.00 | 37 | 1016.3 |
| 20260502190652 | 64 | 177 | 1.7 | 2.6 | 0.00 | 0.00 | 0.00 | 36 | 1016.1 |
| 20260502190150 | 63 | 182 | 3.5 | 5.2 | 0.00 | 0.00 | 0.00 | 36 | 1016.2 |
| 20260502185644 | 63 | 228 | 3.5 | 6.1 | 0.00 | 0.00 | 0.00 | 38 | 1016.2 |
| 20260502185141 | 63 | 220 | 4.3 | 7.8 | 0.00 | 0.00 | 0.00 | 37 | 1016.3 |
| 20260502184637 | 62 | 166 | 1.7 | 1.7 | 0.00 | 0.00 | 0.00 | 38 | 1016.4 |
| 20260502184133 | 62 | 220 | 6.1 | 7.0 | 0.00 | 0.00 | 0.00 | 37 | 1016.5 |
| 20260502183630 | 62 | 170 | 4.3 | 6.1 | 0.00 | 0.00 | 0.00 | 37 | 1016.6 |
| 20260502183126 | 62 | 215 | 2.6 | 4.3 | 0.00 | 0.00 | 0.00 | 38 | 1017.0 |
| 20260502182621 | 61 | 168 | 0.9 | 1.7 | 0.00 | 0.00 | 0.00 | 37 | 1016.9 |
| 20260502182117 | 61 | 229 | 0.0 | 0.0 | 0.00 | 0.00 | 0.00 | 38 | 1016.9 |
| 20260502181615 | 61 | 175 | 0.9 | 0.9 | 0.00 | 0.00 | 0.00 | 38 | 1017.1 |
| 20260502181114 | 60 | 202 | 1.7 | 2.6 | 0.00 | 0.00 | 0.00 | 39 | 1017.1 |
| 20260502180610 | 61 | 156 | 0.9 | 1.7 | 0.00 | 0.00 | 0.00 | 40 | 1017.4 |
| 20260502180108 | 60 | 186 | 2.6 | 4.3 | 0.00 | 0.00 | 0.00 | 38 | 1017.3 |
| 20260502164008 | 56 | 257 | 3.5 | 5.2 | 0.00 | 0.00 | 0.00 | 41 | 1018.5 |
| 20260502163503 | 57 | 278 | 7.8 | 9.6 | 0.00 | 0.00 | 0.00 | 39 | 1018.5 |
| 20260502163001 | 56 | 171 | 0.0 | 0.9 | 0.00 | 0.00 | 0.00 | 42 | 1018.6 |
| 20260502162457 | 56 | 226 | 3.5 | 4.3 | 0.00 | 0.00 | 0.00 | 40 | 1018.9 |
| 20260502161954 | 55 | 276 | 3.5 | 6.1 | 0.00 | 0.00 | 0.00 | 42 | 1018.8 |
| 20260502161450 | 55 | 261 | 4.3 | 5.2 | 0.00 | 0.00 | 0.00 | 41 | 1019.1 |
| 20260502160949 | 55 | 277 | 3.5 | 4.3 | 0.00 | 0.00 | 0.00 | 41 | 1019.0 |
| 20260502160446 | 55 | 235 | 2.6 | 2.6 | 0.00 | 0.00 | 0.00 | 41 | 1018.9 |
| 20260502151935 | 53 | 313 | 1.7 | 2.6 | 0.00 | 0.00 | 0.00 | 46 | 1019.5 |
| 20260502151432 | 53 | 270 | 3.5 | 5.2 | 0.00 | 0.00 | 0.00 | 46 | 1019.5 |
| 20260502150930 | 53 | 304 | 5.2 | 7.0 | 0.00 | 0.00 | 0.00 | 46 | 1019.5 |
| 20260502150426 | 53 | 236 | 2.6 | 4.3 | 0.00 | 0.00 | 0.00 | 45 | 1019.7 |
| 20260502130312 | 45 | 284 | 0.0 | 0.0 | 0.00 | 0.00 | 0.00 | 60 | 1020.2 |
| 20260502123757 | 44 | 276 | 0.0 | 0.0 | 0.00 | 0.00 | 0.00 | 63 | 1020.2 |
| 20260502123254 | 43 | 249 | 0.0 | 0.0 | 0.00 | 0.00 | 0.00 | 64 | 1020.1 |
| 20260502122751 | 42 | 291 | 0.0 | 0.0 | 0.00 | 0.00 | 0.00 | 66 | 1020.2 |
| 20260502122247 | 42 | 265 | 0.0 | 0.0 | 0.00 | 0.00 | 0.00 | 66 | 1020.1 |
| 20260502121745 | 42 | 245 | 0.0 | 0.0 | 0.00 | 0.00 | 0.00 | 67 | 1020.1 |
| 20260502121243 | 41 | 256 | 0.0 | 0.0 | 0.00 | 0.00 | 0.00 | 68 | 1020.2 |
| 20260502120739 | 41 | 319 | 0.0 | 0.0 | 0.00 | 0.00 | 0.00 | 69 | 1020.1 |
| 20260502120236 | 40 | 293 | 0.0 | 0.0 | 0.00 | 0.00 | 0.00 | 70 | 1020.1 |
| 20260502115734 | 40 | 272 | 0.0 | 0.0 | 0.00 | 0.00 | 0.00 | 70 | 1020.2 |
| 20260502115231 | 39 | 248 | 0.0 | 0.0 | 0.00 | 0.00 | 0.00 | 70 | 1020.0 |
| 20260502114726 | 39 | 269 | 0.0 | 0.0 | 0.00 | 0.00 | 0.00 | 70 | 1020.0 |
| 20260502114224 | 39 | 262 | 0.0 | 0.0 | 0.00 | 0.00 | 0.00 | 71 | 1020.1 |
| 20260502113721 | 39 | 279 | 0.0 | 0.0 | 0.00 | 0.00 | 0.00 | 72 | 1020.0 |
| 20260502113219 | 39 | 271 | 0.0 | 0.9 | 0.00 | 0.00 | 0.00 | 71 | 1020.0 |
| 20260502112716 | 38 | 255 | 0.0 | 0.0 | 0.00 | 0.00 | 0.00 | 72 | 1020.0 |
| 20260502112214 | 38 | 244 | 0.0 | 0.0 | 0.00 | 0.00 | 0.00 | 72 | 1020.0 |
| 20260502111711 | 39 | 279 | 0.0 | 0.0 | 0.00 | 0.00 | 0.00 | 71 | 1020.0 |
| 20260502111209 | 39 | 245 | 0.0 | 0.0 | 0.00 | 0.00 | 0.00 | 70 | 1020.0 |
| 20260502110706 | 39 | 286 | 1.7 | 2.6 | 0.00 | 0.00 | 0.00 | 70 | 1019.9 |
| 20260502110203 | 38 | 259 | 0.0 | 0.0 | 0.00 | 0.00 | 0.00 | 71 | 1019.9 |
| 20260502105701 | 37 | 216 | 0.0 | 0.0 | 0.00 | 0.00 | 0.00 | 72 | 1019.9 |
| 20260502105157 | 37 | 203 | 0.0 | 0.0 | 0.00 | 0.00 | 0.00 | 72 | 1019.9 |
| 20260502104655 | 37 | 217 | 0.0 | 0.0 | 0.00 | 0.00 | 0.00 | 72 | 1019.7 |
| 20260502104153 | 37 | 203 | 0.0 | 0.0 | 0.00 | 0.00 | 0.00 | 72 | 1019.9 |
| 20260502103650 | 37 | 208 | 0.0 | 0.0 | 0.00 | 0.00 | 0.00 | 71 | 1019.7 |
| 20260502103148 | 37 | 221 | 0.0 | 0.0 | 0.00 | 0.00 | 0.00 | 71 | 1019.7 |
| 20260502102644 | 37 | 209 | 0.0 | 0.0 | 0.00 | 0.00 | 0.00 | 71 | 1020.0 |
| 20260502102141 | 37 | 199 | 0.0 | 0.0 | 0.00 | 0.00 | 0.00 | 72 | 1019.7 |
| 20260502101639 | 37 | 199 | 0.0 | 0.0 | 0.00 | 0.00 | 0.00 | 72 | 1019.8 |
| 20260502101137 | 37 | 199 | 0.0 | 0.0 | 0.00 | 0.00 | 0.00 | 72 | 1019.9 |
| 20260502100635 | 37 | 199 | 0.0 | 0.0 | 0.00 | 0.00 | 0.00 | 71 | 1019.7 |
| 20260502100133 | 38 | 204 | 0.0 | 0.0 | 0.00 | 0.00 | 0.00 | 70 | 1019.8 |
| 20260502091107 | 39 | 202 | 0.0 | 0.0 | 0.00 | 0.00 | 0.00 | 68 | 1019.6 |
| 20260502090604 | 39 | 202 | 0.0 | 0.0 | 0.00 | 0.00 | 0.00 | 66 | 1019.6 |
| 20260502071458 | 43 | 259 | 1.7 | 1.7 | 0.00 | 0.00 | 0.00 | 57 | 1019.9 |
| 20260502070956 | 43 | 242 | 0.9 | 2.6 | 0.00 | 0.00 | 0.00 | 56 | 1020.0 |
| 20260502070454 | 44 | 252 | 0.0 | 0.0 | 0.00 | 0.00 | 0.00 | 56 | 1019.8 |
| 20260502065953 | 44 | 255 | 0.9 | 1.7 | 0.00 | 0.00 | 0.00 | 56 | 1020.0 |
| 20260502065451 | 44 | 216 | 0.0 | 0.0 | 0.00 | 0.00 | 0.00 | 55 | 1020.1 |
| 20260502064948 | 44 | 264 | 0.0 | 1.7 | 0.00 | 0.00 | 0.00 | 55 | 1020.0 |
| 20260502064446 | 44 | 250 | 0.0 | 0.0 | 0.00 | 0.00 | 0.00 | 55 | 1020.1 |
| 20260502063943 | 44 | 231 | 0.0 | 0.0 | 0.00 | 0.00 | 0.00 | 57 | 1020.1 |
| 20260502063441 | 44 | 263 | 0.0 | 0.0 | 0.00 | 0.00 | 0.00 | 55 | 1020.0 |
| 20260502062938 | 44 | 268 | 1.7 | 4.3 | 0.00 | 0.00 | 0.00 | 55 | 1020.2 |
| 20260502062435 | 44 | 251 | 2.6 | 2.6 | 0.00 | 0.00 | 0.00 | 54 | 1020.1 |
| 20260502061934 | 44 | 240 | 0.9 | 1.7 | 0.00 | 0.00 | 0.00 | 54 | 1020.1 |
| 20260502061431 | 44 | 245 | 0.0 | 0.0 | 0.00 | 0.00 | 0.00 | 54 | 1020.3 |
| 20260502060927 | 44 | 251 | 0.0 | 0.0 | 0.00 | 0.00 | 0.00 | 54 | 1020.1 |
| 20260502060422 | 44 | 285 | 0.9 | 4.3 | 0.00 | 0.00 | 0.00 | 55 | 1020.2 |
| 20260502055920 | 44 | 242 | 1.7 | 2.6 | 0.00 | 0.00 | 0.00 | 54 | 1020.0 |
| 20260502055417 | 44 | 239 | 0.9 | 1.7 | 0.00 | 0.00 | 0.00 | 54 | 1020.3 |
| 20260502054912 | 44 | 226 | 0.0 | 0.0 | 0.00 | 0.00 | 0.00 | 55 | 1020.2 |
| 20260502054409 | 44 | 253 | 0.0 | 0.9 | 0.00 | 0.00 | 0.00 | 55 | 1020.2 |
| 20260502053906 | 45 | 242 | 0.9 | 2.6 | 0.00 | 0.00 | 0.00 | 54 | 1020.2 |
| 20260502053404 | 45 | 261 | 0.9 | 0.9 | 0.00 | 0.00 | 0.00 | 54 | 1020.2 |
| 20260502052900 | 45 | 301 | 0.9 | 2.6 | 0.00 | 0.00 | 0.00 | 54 | 1020.3 |
| 20260502052359 | 45 | 254 | 0.0 | 0.0 | 0.00 | 0.00 | 0.00 | 53 | 1020.2 |
| 20260502051856 | 45 | 268 | 2.6 | 5.2 | 0.00 | 0.00 | 0.00 | 54 | 1020.0 |
| 20260502051355 | 45 | 245 | 1.7 | 1.7 | 0.00 | 0.00 | 0.00 | 53 | 1020.2 |
| 20260502050851 | 45 | 245 | 0.0 | 0.0 | 0.00 | 0.00 | 0.00 | 55 | 1020.1 |
| 20260502050347 | 45 | 244 | 0.0 | 0.0 | 0.00 | 0.00 | 0.00 | 54 | 1020.2 |
| 20260502045844 | 45 | 236 | 0.9 | 1.7 | 0.00 | 0.00 | 0.00 | 54 | 1020.1 |
| 20260502045341 | 45 | 257 | 1.7 | 2.6 | 0.00 | 0.00 | 0.00 | 54 | 1020.4 |
| 20260502044838 | 45 | 269 | 2.6 | 2.6 | 0.00 | 0.00 | 0.00 | 54 | 1020.4 |
| 20260502044334 | 44 | 232 | 0.9 | 0.9 | 0.00 | 0.00 | 0.00 | 55 | 1020.2 |
| 20260502043831 | 43 | 247 | 1.7 | 1.7 | 0.00 | 0.00 | 0.00 | 57 | 1020.2 |
| 20260502043328 | 42 | 218 | 0.9 | 1.7 | 0.00 | 0.00 | 0.00 | 58 | 1020.2 |
| 20260502042823 | 42 | 190 | 0.0 | 0.0 | 0.00 | 0.00 | 0.00 | 60 | 1020.2 |
| 20260502042320 | 41 | 220 | 0.0 | 0.0 | 0.00 | 0.00 | 0.00 | 61 | 1020.2 |
| 20260502041818 | 41 | 220 | 0.0 | 0.0 | 0.00 | 0.00 | 0.00 | 60 | 1020.1 |
| 20260502041315 | 41 | 220 | 0.0 | 0.0 | 0.00 | 0.00 | 0.00 | 61 | 1020.0 |
| 20260502040812 | 40 | 220 | 0.0 | 0.0 | 0.00 | 0.00 | 0.00 | 62 | 1020.2 |
| 20260502040308 | 41 | 220 | 0.0 | 0.0 | 0.00 | 0.00 | 0.00 | 60 | 1020.0 |
| 20260502035804 | 41 | 220 | 0.0 | 0.0 | 0.00 | 0.00 | 0.00 | 59 | 1020.3 |
| 20260502035301 | 42 | 220 | 0.0 | 0.0 | 0.00 | 0.00 | 0.00 | 59 | 1020.1 |
| 20260502034759 | 42 | 220 | 0.0 | 0.0 | 0.00 | 0.00 | 0.00 | 58 | 1020.1 |
| 20260502034257 | 42 | 220 | 0.0 | 0.0 | 0.00 | 0.00 | 0.00 | 59 | 1020.3 |
| 20260502033755 | 41 | 220 | 0.0 | 0.0 | 0.00 | 0.00 | 0.00 | 59 | 1020.3 |
| 20260502033252 | 41 | 220 | 0.0 | 0.0 | 0.00 | 0.00 | 0.00 | 60 | 1020.2 |
| 20260502032749 | 42 | 220 | 0.0 | 0.0 | 0.00 | 0.00 | 0.00 | 60 | 1020.0 |
| 20260502032245 | 42 | 220 | 0.0 | 0.0 | 0.00 | 0.00 | 0.00 | 58 | 1020.2 |
| 20260502031743 | 42 | 220 | 0.0 | 0.0 | 0.00 | 0.00 | 0.00 | 58 | 1020.2 |
| 20260502031240 | 43 | 220 | 0.0 | 0.0 | 0.00 | 0.00 | 0.00 | 56 | 1020.1 |
| 20260502030739 | 43 | 220 | 0.0 | 0.0 | 0.00 | 0.00 | 0.00 | 57 | 1020.2 |
| 20260502030237 | 44 | 220 | 0.0 | 0.0 | 0.00 | 0.00 | 0.00 | 55 | 1020.1 |
| 20260502025734 | 44 | 220 | 0.0 | 0.0 | 0.00 | 0.00 | 0.00 | 55 | 1020.2 |
| 20260502025232 | 44 | 220 | 0.0 | 0.0 | 0.00 | 0.00 | 0.00 | 55 | 1020.2 |
| 20260502024729 | 44 | 220 | 0.0 | 0.0 | 0.00 | 0.00 | 0.00 | 55 | 1020.2 |
| 20260502024227 | 44 | 220 | 0.0 | 0.0 | 0.00 | 0.00 | 0.00 | 54 | 1020.2 |
| 20260502023725 | 45 | 221 | 0.0 | 0.0 | 0.00 | 0.00 | 0.00 | 54 | 1020.2 |
| 20260502023222 | 46 | 221 | 0.0 | 0.0 | 0.00 | 0.00 | 0.00 | 49 | 1020.3 |
| 20260502022720 | 45 | 221 | 0.0 | 0.0 | 0.00 | 0.00 | 0.00 | 49 | 1020.3 |
| 20260502022216 | 45 | 226 | 0.0 | 0.0 | 0.00 | 0.00 | 0.00 | 49 | 1020.1 |
| 20260502021713 | 44 | 226 | 0.0 | 0.0 | 0.00 | 0.00 | 0.00 | 54 | 1020.1 |
| 20260502021210 | 44 | 226 | 0.0 | 0.0 | 0.00 | 0.00 | 0.00 | 53 | 1020.0 |
| 20260502020707 | 44 | 226 | 0.0 | 0.0 | 0.00 | 0.00 | 0.00 | 52 | 1020.2 |
| 20260502020204 | 45 | 226 | 0.0 | 0.0 | 0.00 | 0.00 | 0.00 | 52 | 1019.9 |
| 20260502015703 | 45 | 226 | 0.0 | 0.0 | 0.00 | 0.00 | 0.00 | 51 | 1019.8 |
| 20260502015158 | 46 | 226 | 0.0 | 0.0 | 0.00 | 0.00 | 0.00 | 50 | 1019.7 |
| 20260502014656 | 46 | 226 | 0.0 | 0.0 | 0.00 | 0.00 | 0.00 | 48 | 1019.8 |
| 20260502014153 | 47 | 226 | 0.0 | 0.0 | 0.00 | 0.00 | 0.00 | 48 | 1019.6 |
| 20260502013649 | 48 | 226 | 0.0 | 0.0 | 0.00 | 0.00 | 0.00 | 48 | 1019.6 |
| 20260502013144 | 48 | 226 | 0.0 | 0.0 | 0.00 | 0.00 | 0.00 | 45 | 1019.6 |
| 20260502012642 | 49 | 227 | 0.0 | 0.0 | 0.00 | 0.00 | 0.00 | 43 | 1019.7 |
| 20260502012140 | 50 | 238 | 0.0 | 0.0 | 0.00 | 0.00 | 0.00 | 42 | 1019.6 |
| 20260502011636 | 50 | 222 | 0.0 | 0.0 | 0.00 | 0.00 | 0.00 | 42 | 1019.6 |
| 20260502011132 | 50 | 261 | 0.0 | 0.0 | 0.00 | 0.00 | 0.00 | 42 | 1019.6 |
| 20260502010630 | 51 | 247 | 0.0 | 0.0 | 0.00 | 0.00 | 0.00 | 41 | 1019.6 |
| 20260502010126 | 51 | 318 | 3.5 | 5.2 | 0.00 | 0.00 | 0.00 | 39 | 1019.7 |
| 20260502005623 | 51 | 296 | 0.0 | 0.0 | 0.00 | 0.00 | 0.00 | 40 | 1019.4 |
| 20260502005121 | 51 | 228 | 0.9 | 1.7 | 0.00 | 0.00 | 0.00 | 39 | 1019.6 |
| 20260502004617 | 51 | 315 | 0.0 | 0.0 | 0.00 | 0.00 | 0.00 | 40 | 1019.5 |
| 20260502004114 | 51 | 278 | 0.0 | 0.0 | 0.00 | 0.00 | 0.00 | 38 | 1019.6 |
| 20260502003612 | 51 | 277 | 2.6 | 4.3 | 0.00 | 0.00 | 0.00 | 38 | 1019.6 |
| 20260502003108 | 52 | 334 | 11.3 | 13.0 | 0.00 | 0.00 | 0.00 | 37 | 1019.5 |
| 20260502002604 | 52 | 269 | 3.5 | 7.0 | 0.00 | 0.00 | 0.00 | 37 | 1019.6 |
| 20260502002102 | 52 | 352 | 1.7 | 1.7 | 0.00 | 0.00 | 0.00 | 36 | 1019.6 |
| 20260502001600 | 53 | 320 | 4.3 | 5.2 | 0.00 | 0.00 | 0.00 | 35 | 1019.5 |
| 20260502001056 | 53 | 305 | 1.7 | 4.3 | 0.00 | 0.00 | 0.00 | 37 | 1019.5 |
| 20260502000555 | 53 | 334 | 3.5 | 4.3 | 0.00 | 0.00 | 0.00 | 37 | 1019.7 |
| 20260502000052 | 53 | 279 | 0.0 | 0.0 | 0.00 | 0.00 | 0.00 | 38 | 1019.5 |
| 20260501235547 | 52 | 248 | 0.0 | 0.0 | 0.00 | 0.00 | 0.00 | 38 | 1019.5 |
| 20260501235043 | 52 | 311 | 0.0 | 0.9 | 0.00 | 0.00 | 0.00 | 38 | 1019.6 |
| 20260501234539 | 52 | 323 | 3.5 | 4.3 | 0.00 | 0.00 | 0.00 | 37 | 1019.5 |
| 20260501234038 | 54 | 278 | 0.0 | 0.0 | 0.00 | 0.00 | 0.00 | 37 | 1019.4 |
| 20260501233535 | 53 | 340 | 0.0 | 0.0 | 0.00 | 0.00 | 0.00 | 37 | 1019.3 |
| 20260501233032 | 54 | 248 | 0.9 | 1.7 | 0.00 | 0.00 | 0.00 | 37 | 1019.4 |
| 20260501232528 | 53 | 304 | 3.5 | 4.3 | 0.00 | 0.00 | 0.00 | 36 | 1019.4 |
| 20260501232025 | 53 | 267 | 4.3 | 5.2 | 0.00 | 0.00 | 0.00 | 37 | 1019.6 |
| 20260501231523 | 54 | 257 | 0.0 | 0.0 | 0.00 | 0.00 | 0.00 | 38 | 1019.4 |
| 20260501231021 | 53 | 290 | 2.6 | 4.3 | 0.00 | 0.00 | 0.00 | 37 | 1019.6 |
| 20260501230520 | 53 | 285 | 2.6 | 2.6 | 0.00 | 0.00 | 0.00 | 37 | 1019.7 |
| 20260501230017 | 53 | 314 | 7.8 | 11.3 | 0.00 | 0.00 | 0.00 | 37 | 1019.5 |
| 20260501225515 | 54 | 19 | 5.2 | 7.0 | 0.00 | 0.00 | 0.00 | 37 | 1019.6 |
| 20260501225010 | 52 | 272 | 0.0 | 0.0 | 0.00 | 0.00 | 0.00 | 38 | 1019.4 |
| 20260501224508 | 52 | 205 | 0.9 | 0.9 | 0.00 | 0.00 | 0.00 | 36 | 1019.6 |
| 20260501224005 | 52 | 355 | 1.7 | 1.7 | 0.00 | 0.00 | 0.00 | 36 | 1019.7 |
| 20260501223502 | 51 | 344 | 2.6 | 2.6 | 0.00 | 0.00 | 0.00 | 38 | 1019.6 |
| 20260501222957 | 51 | 352 | 3.5 | 4.3 | 0.00 | 0.00 | 0.00 | 38 | 1019.7 |
| 20260501222454 | 51 | 341 | 1.7 | 1.7 | 0.00 | 0.00 | 0.00 | 40 | 1019.9 |
| 20260501221950 | 50 | 293 | 4.3 | 6.1 | 0.00 | 0.00 | 0.00 | 39 | 1019.7 |
| 20260501221447 | 51 | 294 | 4.3 | 5.2 | 0.00 | 0.00 | 0.00 | 39 | 1019.8 |
| 20260501220946 | 51 | 302 | 3.5 | 5.2 | 0.00 | 0.00 | 0.00 | 38 | 1019.6 |
| 20260501220443 | 51 | 310 | 2.6 | 2.6 | 0.00 | 0.00 | 0.00 | 38 | 1019.7 |
| 20260501215938 | 51 | 314 | 1.7 | 1.7 | 0.00 | 0.00 | 0.00 | 38 | 1019.7 |
| 20260501215436 | 50 | 347 | 2.6 | 4.3 | 0.00 | 0.00 | 0.00 | 39 | 1019.8 |
| 20260501214931 | 51 | 329 | 3.5 | 4.3 | 0.00 | 0.00 | 0.00 | 39 | 1019.8 |